STAZIONE METEO DI BARCELLONA P.G. CENTRO
Dati campionati ogni minuto da Consolle Davis Vantage Pro 2
ed inviati alla rete mediante server Anemos WDS5 wview



Barcellona P.G. Centro more information Barcellona P.G. Centro


Golfo di Patti more information Golfo di Patti


Thunder radar more information blitzortung!


Rain radar  rain snow radar


altri nostri siti meteo:

Rischio IncendiRischio Incendi

Rete NOAA MADIS

Italia Meteo Network

PomeziameteoSito web di stazione meteo amica



Non è richiesta alcuna attenzione speciale.    Non sono presenti avvisi meteorologici di particolare rilevanza

Select another period ( hide this area )

Unità Periodo Custom range Directly to
Metrico Inglese Entrambi
Quotidiano Settimanale mensile Annuale
use both date-selectors for a custom range
previous Day
With this date

WeatherUnderground graphs for this period ( click here )


Quotidiano Riepilogo per Lunedi' 19 Agosto 2019
Tempo Temp. ( °C ) Dew pt. ( °C ) Vento ( km/h ) da Raffica ( km/h ) Pressione ( hPa ) Humid.( % ) Rainrate ( cm ) solare ( W/m2 )
Max24,8 17,8 11,3 SE ( 115/146 ) 14,5 1015,1 70 - 0
Media24,0 16,4 3,0 SE #25/48 9,7 1014,8 63 - 0 #0/48
Min23,4 15,1 -   4,8 1014,8 57 -  
Quotidiano Tabular details for Lunedi' 19 Agosto 2019
Tempo Temp. ( °C ) Dew pt. ( °C ) Vento ( km/h ) da Raffica ( km/h ) Pressione ( hPa ) Humid.( % ) Rainrate ( cm ) solare ( W/m2 )
00:00 24,8 15,9 8,0 Oriente 9,7 1014,8 58 - -
00:05 24,7 15,6 6,4 SE 12,9 1014,8 57 - -
00:10 24,6 15,7 4,8 SE 11,3 1014,8 58 - -
00:15 24,6 15,7 4,8 SE 14,5 1014,8 58 - -
00:20 24,4 15,3 4,8 SE 14,5 1014,8 57 - -
00:25 24,4 15,3 6,4 SE 6,4 1014,8 57 - -
00:30 24,4 15,3 4,8 SE 11,3 1014,8 57 - -
00:35 24,3 15,2 1,6 SE 12,9 1014,8 57 - -
00:40 24,3 15,2 4,8 SE 12,9 1014,8 57 - -
00:45 24,3 15,2 3,2 SE 12,9 1014,8 57 - -
00:50 24,3 15,2   calma 11,3 1014,8 57 - -
00:55 24,2 15,1 1,6 SE 14,5 1014,8 57 - -
01:00 24,2 15,4   calma 6,4 1014,8 58 - -
01:05 24,2 15,7   calma 8,0 1014,8 59 - -
01:10 24,2 15,7   calma 6,4 1014,8 59 - -
01:15 24,2 15,9   calma 11,3 1014,8 60 - -
01:20 24,3 16,2   calma 4,8 1014,8 61 - -
01:25 24,3 16,2 4,8 SE 4,8 1014,8 61 - -
01:30 24,3 16,2 3,2 SE 6,4 1014,8 61 - -
01:35 24,3 16,3   calma 6,4 1014,8 61 - -
01:40 24,3 16,2 8,0 SE 8,0 1014,8 61 - -
01:45 24,3 16,2   calma 8,0 1014,8 61 - -
01:50 24,2 16,2   calma 8,0 1014,8 61 - -
01:55 24,2 16,2 3,2 SE 4,8 1014,8 61 - -
02:00 24,2 16,4   calma 11,3 1014,8 62 - -
02:05 24,1 16,3 1,6 SE 6,4 1015,1 62 - -
02:10 24,1 16,6   calma 8,0 1015,1 63 - -
02:15 23,9 16,7 4,8 SE 11,3 1015,1 64 - -
02:20 23,9 16,6 1,6 SE 8,0 1015,1 64 - -
02:25 23,8 16,8   calma 8,0 1015,1 65 - -
02:30 23,8 16,8 3,2 SE 12,9 1015,1 65 - -
02:35 23,8 16,8 4,8 SE 8,0 1014,8 65 - -
02:40 23,8 16,8 11,3 SE 12,9 1014,8 65 - -
02:45 23,7 16,9 3,2 SE 12,9 1014,8 66 - -
02:50 23,7 17,2 8,0 SE 12,9 1014,8 67 - -
02:55 23,7 17,2   calma 11,3 1014,8 67 - -
03:00 23,7 17,2   calma 12,9 1014,8 67 - -
03:05 23,6 17,3 4,8 SE 4,8 1014,8 68 - -
03:10 23,6 17,3 4,8 SE 8,0 1014,8 68 - -
03:15 23,6 17,5   calma 11,3 1014,8 69 - -
03:20 23,6 17,6   calma 6,4 1014,8 69 - -
03:25 23,6 17,6 8,0 SE 8,0 1014,8 69 - -
03:30 23,6 17,8 6,4 SE 11,3 1014,8 70 - -
03:35 23,6 17,8 1,6 SE 11,3 1014,8 70 - -
03:40 23,6 17,7 1,6 SE 12,9 1014,8 70 - -
03:45 23,5 17,7 4,8 SE 8,0 1014,8 70 - -
03:50 23,4 17,6 4,8 SE 9,7 1014,8 70 - -
03:55 23,4 17,6   calma 8,0 1014,8 70 - -
Quotidiano Riepilogo per Lunedi' 19 Agosto 2019
Tempo Temp. ( °C ) Dew pt. ( °C ) Vento ( km/h ) da Raffica ( km/h ) Pressione ( hPa ) Humid.( % ) Rainrate ( cm ) solare ( W/m2 )
Max24,8 17,8 11,3 SE ( 115/146 ) 14,5 1015,1 70 - 0
Media24,0 16,4 3,0 SE #25/48 9,7 1014,8 63 - 0 #0/48
Min23,4 15,1 -   4,8 1014,8 57 -  
Quotidiano Tabular details for Lunedi' 19 Agosto 2019
Tempo Temp. ( °C ) Dew pt. ( °C ) Vento ( km/h ) da Raffica ( km/h ) Pressione ( hPa ) Humid.( % ) Rainrate ( cm ) solare ( W/m2 )
00:00 24,8 15,9 8,0 Oriente 9,7 1014,8 58 - -
00:05 24,7 15,6 6,4 SE 12,9 1014,8 57 - -
00:10 24,6 15,7 4,8 SE 11,3 1014,8 58 - -
00:15 24,6 15,7 4,8 SE 14,5 1014,8 58 - -
00:20 24,4 15,3 4,8 SE 14,5 1014,8 57 - -
00:25 24,4 15,3 6,4 SE 6,4 1014,8 57 - -
00:30 24,4 15,3 4,8 SE 11,3 1014,8 57 - -
00:35 24,3 15,2 1,6 SE 12,9 1014,8 57 - -
00:40 24,3 15,2 4,8 SE 12,9 1014,8 57 - -
00:45 24,3 15,2 3,2 SE 12,9 1014,8 57 - -
00:50 24,3 15,2   calma 11,3 1014,8 57 - -
00:55 24,2 15,1 1,6 SE 14,5 1014,8 57 - -
01:00 24,2 15,4   calma 6,4 1014,8 58 - -
01:05 24,2 15,7   calma 8,0 1014,8 59 - -
01:10 24,2 15,7   calma 6,4 1014,8 59 - -
01:15 24,2 15,9   calma 11,3 1014,8 60 - -
01:20 24,3 16,2   calma 4,8 1014,8 61 - -
01:25 24,3 16,2 4,8 SE 4,8 1014,8 61 - -
01:30 24,3 16,2 3,2 SE 6,4 1014,8 61 - -
01:35 24,3 16,3   calma 6,4 1014,8 61 - -
01:40 24,3 16,2 8,0 SE 8,0 1014,8 61 - -
01:45 24,3 16,2   calma 8,0 1014,8 61 - -
01:50 24,2 16,2   calma 8,0 1014,8 61 - -
01:55 24,2 16,2 3,2 SE 4,8 1014,8 61 - -
02:00 24,2 16,4   calma 11,3 1014,8 62 - -
02:05 24,1 16,3 1,6 SE 6,4 1015,1 62 - -
02:10 24,1 16,6   calma 8,0 1015,1 63 - -
02:15 23,9 16,7 4,8 SE 11,3 1015,1 64 - -
02:20 23,9 16,6 1,6 SE 8,0 1015,1 64 - -
02:25 23,8 16,8   calma 8,0 1015,1 65 - -
02:30 23,8 16,8 3,2 SE 12,9 1015,1 65 - -
02:35 23,8 16,8 4,8 SE 8,0 1014,8 65 - -
02:40 23,8 16,8 11,3 SE 12,9 1014,8 65 - -
02:45 23,7 16,9 3,2 SE 12,9 1014,8 66 - -
02:50 23,7 17,2 8,0 SE 12,9 1014,8 67 - -
02:55 23,7 17,2   calma 11,3 1014,8 67 - -
03:00 23,7 17,2   calma 12,9 1014,8 67 - -
03:05 23,6 17,3 4,8 SE 4,8 1014,8 68 - -
03:10 23,6 17,3 4,8 SE 8,0 1014,8 68 - -
03:15 23,6 17,5   calma 11,3 1014,8 69 - -
03:20 23,6 17,6   calma 6,4 1014,8 69 - -
03:25 23,6 17,6 8,0 SE 8,0 1014,8 69 - -
03:30 23,6 17,8 6,4 SE 11,3 1014,8 70 - -
03:35 23,6 17,8 1,6 SE 11,3 1014,8 70 - -
03:40 23,6 17,7 1,6 SE 12,9 1014,8 70 - -
03:45 23,5 17,7 4,8 SE 8,0 1014,8 70 - -
03:50 23,4 17,6 4,8 SE 9,7 1014,8 70 - -
03:55 23,4 17,6   calma 8,0 1014,8 70 - -

Download your copy of this data-set  here

Our weather-data as stored at Weather Underground. Script sviluppato da Jim McMurry. Adattato per il modello da Leuven-Template.eu

Potete trovare le nostre info meteo anche a:

European Weather Network

Weather Underground

AWEKAS

Citizen Weather Observer Program (CWOP)

HAMweather, WeatherForYou, PWS Weather

Attrezzature usate:

Stazione meteo
Davis VP2

Programma gestore dati meteo
WVIEW

Server per i dati meteo
WDS5 Ecoblack

Davis VP2

WVIEW

WDS5 Ecoblack